sensor_id;sensor_type;location;lat;lon;timestamp;pressure;altitude;pressure_sealevel;temperature;humidity
47220;BME280;32961;51.936;4.788;2024-01-07T00:02:24;101771.75;;;1.13;96.85
47220;BME280;32961;51.936;4.788;2024-01-07T00:04:52;101767.16;;;1.17;97.01
47220;BME280;32961;51.936;4.788;2024-01-07T00:07:20;101780.41;;;1.20;96.48
47220;BME280;32961;51.936;4.788;2024-01-07T00:09:48;101783.06;;;1.20;96.52
47220;BME280;32961;51.936;4.788;2024-01-07T00:12:16;101778.78;;;1.16;96.09
47220;BME280;32961;51.936;4.788;2024-01-07T00:14:44;101776.34;;;1.09;94.86
47220;BME280;32961;51.936;4.788;2024-01-07T00:17:13;101775.09;;;0.96;94.04
47220;BME280;32961;51.936;4.788;2024-01-07T00:19:41;101784.88;;;0.97;94.70
47220;BME280;32961;51.936;4.788;2024-01-07T00:22:10;101788.69;;;0.90;94.34
47220;BME280;32961;51.936;4.788;2024-01-07T00:24:38;101793.47;;;0.82;94.58
47220;BME280;32961;51.936;4.788;2024-01-07T00:27:06;101797.72;;;0.87;94.46
47220;BME280;32961;51.936;4.788;2024-01-07T00:29:35;101797.81;;;0.84;94.30
47220;BME280;32961;51.936;4.788;2024-01-07T00:32:04;101796.75;;;0.88;95.30
47220;BME280;32961;51.936;4.788;2024-01-07T00:34:33;101786.25;;;0.84;95.21
47220;BME280;32961;51.936;4.788;2024-01-07T00:37:01;101794.06;;;0.90;96.34
47220;BME280;32961;51.936;4.788;2024-01-07T00:39:29;101799.63;;;0.84;96.30
47220;BME280;32961;51.936;4.788;2024-01-07T00:41:57;101800.88;;;0.75;96.40
47220;BME280;32961;51.936;4.788;2024-01-07T00:44:25;101798.97;;;0.77;96.97
47220;BME280;32961;51.936;4.788;2024-01-07T00:46:53;101804.28;;;0.78;97.80
47220;BME280;32961;51.936;4.788;2024-01-07T00:49:21;101806.16;;;0.76;97.59
47220;BME280;32961;51.936;4.788;2024-01-07T00:51:50;101819.13;;;0.87;97.58
47220;BME280;32961;51.936;4.788;2024-01-07T00:54:18;101813.78;;;0.87;97.30
47220;BME280;32961;51.936;4.788;2024-01-07T00:56:46;101815.56;;;0.87;97.54
47220;BME280;32961;51.936;4.788;2024-01-07T00:59:13;101817.06;;;0.94;97.80
47220;BME280;32961;51.936;4.788;2024-01-07T01:01:41;101816.25;;;0.92;97.78
47220;BME280;32961;51.936;4.788;2024-01-07T01:04:12;101824.25;;;0.93;97.70
47220;BME280;32961;51.936;4.788;2024-01-07T01:06:40;101818.91;;;0.93;97.56
47220;BME280;32961;51.936;4.788;2024-01-07T01:09:09;101823.25;;;0.96;98.06
47220;BME280;32961;51.936;4.788;2024-01-07T01:11:37;101825.09;;;0.94;97.06
47220;BME280;32961;51.936;4.788;2024-01-07T01:14:04;101821.50;;;0.95;97.44
47220;BME280;32961;51.936;4.788;2024-01-07T01:16:32;101818.13;;;0.90;98.07
47220;BME280;32961;51.936;4.788;2024-01-07T01:18:59;101822.50;;;0.92;98.46
47220;BME280;32961;51.936;4.788;2024-01-07T01:21:27;101826.16;;;0.90;98.41
47220;BME280;32961;51.936;4.788;2024-01-07T01:23:55;101827.91;;;0.91;97.89
47220;BME280;32961;51.936;4.788;2024-01-07T01:26:25;101826.97;;;0.92;98.48
47220;BME280;32961;51.936;4.788;2024-01-07T01:28:52;101833.19;;;0.92;98.74
47220;BME280;32961;51.936;4.788;2024-01-07T01:31:20;101831.84;;;0.80;98.96
47220;BME280;32961;51.936;4.788;2024-01-07T01:33:48;101825.50;;;0.83;99.73
47220;BME280;32961;51.936;4.788;2024-01-07T01:36:16;101830.06;;;0.81;99.48
47220;BME280;32961;51.936;4.788;2024-01-07T01:38:44;101833.59;;;0.82;100.00
47220;BME280;32961;51.936;4.788;2024-01-07T01:41:12;101838.31;;;0.75;100.00
47220;BME280;32961;51.936;4.788;2024-01-07T01:43:41;101845.13;;;0.84;100.00
47220;BME280;32961;51.936;4.788;2024-01-07T01:46:09;101843.78;;;0.72;100.00
47220;BME280;32961;51.936;4.788;2024-01-07T01:48:37;101842.78;;;0.74;100.00
47220;BME280;32961;51.936;4.788;2024-01-07T01:51:05;101848.28;;;0.70;100.00
47220;BME280;32961;51.936;4.788;2024-01-07T01:53:33;101845.69;;;0.68;100.00
47220;BME280;32961;51.936;4.788;2024-01-07T01:56:01;101846.81;;;0.61;100.00
47220;BME280;32961;51.936;4.788;2024-01-07T01:58:29;101854.69;;;0.66;100.00
47220;BME280;32961;51.936;4.788;2024-01-07T02:00:59;101849.44;;;0.62;100.00
47220;BME280;32961;51.936;4.788;2024-01-07T02:03:27;101855.06;;;0.55;100.00
47220;BME280;32961;51.936;4.788;2024-01-07T02:05:56;101856.69;;;0.59;100.00
47220;BME280;32961;51.936;4.788;2024-01-07T02:08:24;101863.16;;;0.53;100.00
47220;BME280;32961;51.936;4.788;2024-01-07T02:10:53;101870.06;;;0.59;100.00
47220;BME280;32961;51.936;4.788;2024-01-07T02:13:21;101874.88;;;0.49;100.00
47220;BME280;32961;51.936;4.788;2024-01-07T02:15:49;101872.09;;;0.52;100.00
47220;BME280;32961;51.936;4.788;2024-01-07T02:18:18;101872.94;;;0.54;100.00
47220;BME280;32961;51.936;4.788;2024-01-07T02:20:46;101879.84;;;0.60;100.00
47220;BME280;32961;51.936;4.788;2024-01-07T02:23:14;101875.41;;;0.59;100.00
47220;BME280;32961;51.936;4.788;2024-01-07T02:25:43;101888.69;;;0.62;100.00
47220;BME280;32961;51.936;4.788;2024-01-07T02:28:11;101880.63;;;0.63;100.00
47220;BME280;32961;51.936;4.788;2024-01-07T02:30:38;101887.94;;;0.58;100.00
47220;BME280;32961;51.936;4.788;2024-01-07T02:33:06;101883.56;;;0.56;100.00
47220;BME280;32961;51.936;4.788;2024-01-07T02:35:34;101897.72;;;0.59;100.00
47220;BME280;32961;51.936;4.788;2024-01-07T02:38:02;101885.31;;;0.57;100.00
47220;BME280;32961;51.936;4.788;2024-01-07T02:40:30;101893.50;;;0.52;100.00
47220;BME280;32961;51.936;4.788;2024-01-07T02:42:59;101897.72;;;0.59;100.00
47220;BME280;32961;51.936;4.788;2024-01-07T02:45:27;101897.59;;;0.62;100.00
47220;BME280;32961;51.936;4.788;2024-01-07T02:47:55;101903.91;;;0.60;100.00
47220;BME280;32961;51.936;4.788;2024-01-07T02:50:23;101905.13;;;0.51;100.00
47220;BME280;32961;51.936;4.788;2024-01-07T02:52:51;101898.75;;;0.55;100.00
47220;BME280;32961;51.936;4.788;2024-01-07T02:55:19;101905.75;;;0.59;100.00
47220;BME280;32961;51.936;4.788;2024-01-07T02:57:47;101903.22;;;0.55;100.00
47220;BME280;32961;51.936;4.788;2024-01-07T03:00:17;101909.50;;;0.54;100.00
47220;BME280;32961;51.936;4.788;2024-01-07T03:02:45;101894.56;;;0.46;100.00
47220;BME280;32961;51.936;4.788;2024-01-07T03:05:13;101907.41;;;0.37;100.00
47220;BME280;32961;51.936;4.788;2024-01-07T03:07:41;101907.84;;;0.50;100.00
47220;BME280;32961;51.936;4.788;2024-01-07T03:10:09;101913.09;;;0.53;100.00
47220;BME280;32961;51.936;4.788;2024-01-07T03:12:37;101908.78;;;0.48;100.00
47220;BME280;32961;51.936;4.788;2024-01-07T03:15:05;101915.75;;;0.53;100.00
47220;BME280;32961;51.936;4.788;2024-01-07T03:17:36;101917.56;;;0.52;100.00
47220;BME280;32961;51.936;4.788;2024-01-07T03:20:05;101920.31;;;0.51;100.00
47220;BME280;32961;51.936;4.788;2024-01-07T03:22:33;101925.50;;;0.55;100.00
47220;BME280;32961;51.936;4.788;2024-01-07T03:25:02;101926.38;;;0.56;100.00
47220;BME280;32961;51.936;4.788;2024-01-07T03:27:30;101923.75;;;0.54;100.00
47220;BME280;32961;51.936;4.788;2024-01-07T03:29:58;101927.22;;;0.56;100.00
47220;BME280;32961;51.936;4.788;2024-01-07T03:32:26;101927.66;;;0.44;100.00
47220;BME280;32961;51.936;4.788;2024-01-07T03:34:55;101926.09;;;0.37;100.00
47220;BME280;32961;51.936;4.788;2024-01-07T03:37:23;101934.25;;;0.34;100.00
47220;BME280;32961;51.936;4.788;2024-01-07T03:39:51;101947.25;;;0.44;100.00
47220;BME280;32961;51.936;4.788;2024-01-07T03:42:18;101941.16;;;0.39;100.00
47220;BME280;32961;51.936;4.788;2024-01-07T03:44:47;101941.91;;;0.44;100.00
47220;BME280;32961;51.936;4.788;2024-01-07T03:47:14;101942.84;;;0.43;100.00
47220;BME280;32961;51.936;4.788;2024-01-07T03:49:42;101945.72;;;0.37;100.00
47220;BME280;32961;51.936;4.788;2024-01-07T03:52:11;101950.22;;;0.35;100.00
47220;BME280;32961;51.936;4.788;2024-01-07T03:54:39;101958.06;;;0.41;100.00
47220;BME280;32961;51.936;4.788;2024-01-07T03:57:07;101956.50;;;0.34;100.00
47220;BME280;32961;51.936;4.788;2024-01-07T03:59:35;101970.75;;;0.35;100.00
47220;BME280;32961;51.936;4.788;2024-01-07T04:02:03;101970.59;;;0.39;100.00
47220;BME280;32961;51.936;4.788;2024-01-07T04:04:31;101971.53;;;0.38;100.00
47220;BME280;32961;51.936;4.788;2024-01-07T04:06:58;101976.06;;;0.36;100.00
47220;BME280;32961;51.936;4.788;2024-01-07T04:09:28;101976.25;;;0.30;100.00
47220;BME280;32961;51.936;4.788;2024-01-07T04:11:56;101979.00;;;0.28;100.00
47220;BME280;32961;51.936;4.788;2024-01-07T04:14:23;101976.31;;;0.28;100.00
47220;BME280;32961;51.936;4.788;2024-01-07T04:16:54;101980.69;;;0.31;100.00
47220;BME280;32961;51.936;4.788;2024-01-07T04:19:21;101984.16;;;0.33;100.00
47220;BME280;32961;51.936;4.788;2024-01-07T04:21:49;101989.56;;;0.31;100.00
47220;BME280;32961;51.936;4.788;2024-01-07T04:24:17;101994.06;;;0.29;100.00
47220;BME280;32961;51.936;4.788;2024-01-07T04:26:46;101997.50;;;0.35;100.00
47220;BME280;32961;51.936;4.788;2024-01-07T04:29:14;102000.38;;;0.28;100.00
47220;BME280;32961;51.936;4.788;2024-01-07T04:31:42;101998.47;;;0.32;100.00
47220;BME280;32961;51.936;4.788;2024-01-07T04:34:10;102000.84;;;0.41;100.00
47220;BME280;32961;51.936;4.788;2024-01-07T04:36:38;102007.00;;;0.43;100.00
47220;BME280;32961;51.936;4.788;2024-01-07T04:39:06;102004.47;;;0.39;100.00
47220;BME280;32961;51.936;4.788;2024-01-07T04:41:35;102007.09;;;0.40;100.00
47220;BME280;32961;51.936;4.788;2024-01-07T04:44:05;102008.97;;;0.38;100.00
47220;BME280;32961;51.936;4.788;2024-01-07T04:46:34;102003.66;;;0.37;100.00
47220;BME280;32961;51.936;4.788;2024-01-07T04:49:02;102009.94;;;0.36;100.00
47220;BME280;32961;51.936;4.788;2024-01-07T04:51:30;102012.75;;;0.31;100.00
47220;BME280;32961;51.936;4.788;2024-01-07T04:53:57;102015.19;;;0.39;100.00
47220;BME280;32961;51.936;4.788;2024-01-07T04:56:25;102018.72;;;0.39;100.00
47220;BME280;32961;51.936;4.788;2024-01-07T04:58:53;102021.50;;;0.36;100.00
47220;BME280;32961;51.936;4.788;2024-01-07T05:01:22;102020.53;;;0.39;100.00
47220;BME280;32961;51.936;4.788;2024-01-07T05:03:50;102018.88;;;0.35;100.00
47220;BME280;32961;51.936;4.788;2024-01-07T05:06:18;102042.97;;;0.33;100.00
47220;BME280;32961;51.936;4.788;2024-01-07T05:08:46;102035.22;;;0.25;100.00
47220;BME280;32961;51.936;4.788;2024-01-07T05:11:14;102038.84;;;0.23;100.00
47220;BME280;32961;51.936;4.788;2024-01-07T05:13:43;102042.41;;;0.23;100.00
47220;BME280;32961;51.936;4.788;2024-01-07T05:16:18;102044.47;;;0.15;100.00
47220;BME280;32961;51.936;4.788;2024-01-07T05:18:47;102045.25;;;0.17;100.00
47220;BME280;32961;51.936;4.788;2024-01-07T05:21:18;102051.16;;;0.28;100.00
47220;BME280;32961;51.936;4.788;2024-01-07T05:23:46;102056.53;;;0.28;100.00
47220;BME280;32961;51.936;4.788;2024-01-07T05:26:14;102063.06;;;0.18;100.00
47220;BME280;32961;51.936;4.788;2024-01-07T05:28:41;102054.97;;;0.21;100.00
47220;BME280;32961;51.936;4.788;2024-01-07T05:31:14;102060.19;;;0.24;100.00
47220;BME280;32961;51.936;4.788;2024-01-07T05:33:42;102061.88;;;0.28;100.00
47220;BME280;32961;51.936;4.788;2024-01-07T05:36:12;102064.47;;;0.30;100.00
47220;BME280;32961;51.936;4.788;2024-01-07T05:38:41;102070.09;;;0.22;100.00
47220;BME280;32961;51.936;4.788;2024-01-07T05:41:09;102073.69;;;0.20;100.00
47220;BME280;32961;51.936;4.788;2024-01-07T05:43:37;102085.34;;;0.19;100.00
47220;BME280;32961;51.936;4.788;2024-01-07T05:46:05;102076.56;;;0.13;100.00
47220;BME280;32961;51.936;4.788;2024-01-07T05:48:41;102082.66;;;0.19;100.00
47220;BME280;32961;51.936;4.788;2024-01-07T05:51:10;102079.81;;;0.25;100.00
47220;BME280;32961;51.936;4.788;2024-01-07T05:53:39;102087.81;;;0.25;100.00
47220;BME280;32961;51.936;4.788;2024-01-07T05:56:07;102085.22;;;0.22;100.00
47220;BME280;32961;51.936;4.788;2024-01-07T05:58:35;102088.81;;;0.21;100.00
47220;BME280;32961;51.936;4.788;2024-01-07T06:01:03;102093.75;;;0.35;100.00
47220;BME280;32961;51.936;4.788;2024-01-07T06:03:31;102095.72;;;0.28;100.00
47220;BME280;32961;51.936;4.788;2024-01-07T06:06:00;102099.19;;;0.31;100.00
47220;BME280;32961;51.936;4.788;2024-01-07T06:08:28;102096.25;;;0.39;100.00
47220;BME280;32961;51.936;4.788;2024-01-07T06:10:57;102101.59;;;0.39;100.00
47220;BME280;32961;51.936;4.788;2024-01-07T06:13:25;102104.34;;;0.38;100.00
47220;BME280;32961;51.936;4.788;2024-01-07T06:15:53;102102.56;;;0.38;100.00
47220;BME280;32961;51.936;4.788;2024-01-07T06:18:21;102112.41;;;0.36;100.00
47220;BME280;32961;51.936;4.788;2024-01-07T06:20:49;102114.16;;;0.37;100.00
47220;BME280;32961;51.936;4.788;2024-01-07T06:23:17;102117.56;;;0.42;100.00
47220;BME280;32961;51.936;4.788;2024-01-07T06:25:45;102131.03;;;0.39;100.00
47220;BME280;32961;51.936;4.788;2024-01-07T06:28:14;102126.66;;;0.37;100.00
47220;BME280;32961;51.936;4.788;2024-01-07T06:30:42;102129.31;;;0.37;100.00
47220;BME280;32961;51.936;4.788;2024-01-07T06:33:10;102139.81;;;0.44;100.00
47220;BME280;32961;51.936;4.788;2024-01-07T06:35:39;102143.28;;;0.46;100.00
47220;BME280;32961;51.936;4.788;2024-01-07T06:38:07;102153.56;;;0.30;100.00
47220;BME280;32961;51.936;4.788;2024-01-07T06:40:35;102155.31;;;0.31;100.00
47220;BME280;32961;51.936;4.788;2024-01-07T06:43:03;102155.31;;;0.31;100.00
47220;BME280;32961;51.936;4.788;2024-01-07T06:45:32;102157.94;;;0.33;100.00
47220;BME280;32961;51.936;4.788;2024-01-07T06:48:00;102164.13;;;0.35;100.00
47220;BME280;32961;51.936;4.788;2024-01-07T06:50:28;102159.53;;;0.40;100.00
47220;BME280;32961;51.936;4.788;2024-01-07T06:52:56;102168.25;;;0.47;100.00
47220;BME280;32961;51.936;4.788;2024-01-07T06:55:24;102182.66;;;0.41;100.00
47220;BME280;32961;51.936;4.788;2024-01-07T06:57:52;102179.03;;;0.44;100.00
47220;BME280;32961;51.936;4.788;2024-01-07T07:00:20;102178.22;;;0.42;100.00
47220;BME280;32961;51.936;4.788;2024-01-07T07:02:50;102178.16;;;0.43;100.00
47220;BME280;32961;51.936;4.788;2024-01-07T07:05:18;102177.97;;;0.50;100.00
47220;BME280;32961;51.936;4.788;2024-01-07T07:07:45;102197.00;;;0.39;100.00
47220;BME280;32961;51.936;4.788;2024-01-07T07:10:13;102188.13;;;0.38;100.00
47220;BME280;32961;51.936;4.788;2024-01-07T07:12:41;102185.34;;;0.41;100.00
47220;BME280;32961;51.936;4.788;2024-01-07T07:15:09;102200.53;;;0.41;100.00
47220;BME280;32961;51.936;4.788;2024-01-07T07:17:38;102199.63;;;0.42;100.00
47220;BME280;32961;51.936;4.788;2024-01-07T07:20:08;102204.00;;;0.44;100.00
47220;BME280;32961;51.936;4.788;2024-01-07T07:22:36;102213.16;;;0.36;100.00
47220;BME280;32961;51.936;4.788;2024-01-07T07:25:05;102217.53;;;0.38;100.00
47220;BME280;32961;51.936;4.788;2024-01-07T07:27:33;102219.38;;;0.36;100.00
47220;BME280;32961;51.936;4.788;2024-01-07T07:30:01;102230.06;;;0.36;100.00
47220;BME280;32961;51.936;4.788;2024-01-07T07:32:29;102233.94;;;0.26;98.81
47220;BME280;32961;51.936;4.788;2024-01-07T07:34:57;102236.75;;;0.20;99.84
47220;BME280;32961;51.936;4.788;2024-01-07T07:37:26;102233.41;;;0.13;99.78
47220;BME280;32961;51.936;4.788;2024-01-07T07:39:54;102232.56;;;0.11;99.78
47220;BME280;32961;51.936;4.788;2024-01-07T07:42:22;102246.72;;;0.14;100.00
47220;BME280;32961;51.936;4.788;2024-01-07T07:44:51;102248.41;;;0.19;100.00
47220;BME280;32961;51.936;4.788;2024-01-07T07:47:19;102249.09;;;0.25;100.00
47220;BME280;32961;51.936;4.788;2024-01-07T07:49:47;102254.56;;;0.21;100.00
47220;BME280;32961;51.936;4.788;2024-01-07T07:52:17;102269.78;;;0.19;100.00
47220;BME280;32961;51.936;4.788;2024-01-07T07:54:49;102268.19;;;0.11;100.00
47220;BME280;32961;51.936;4.788;2024-01-07T07:57:17;102269.16;;;0.09;100.00
47220;BME280;32961;51.936;4.788;2024-01-07T07:59:47;102275.38;;;0.09;100.00
47220;BME280;32961;51.936;4.788;2024-01-07T08:02:15;102273.66;;;0.07;100.00
47220;BME280;32961;51.936;4.788;2024-01-07T08:04:43;102279.88;;;0.07;100.00
47220;BME280;32961;51.936;4.788;2024-01-07T08:07:11;102280.66;;;0.12;100.00
47220;BME280;32961;51.936;4.788;2024-01-07T08:09:39;102279.84;;;0.09;100.00
47220;BME280;32961;51.936;4.788;2024-01-07T08:12:08;102287.78;;;0.12;100.00
47220;BME280;32961;51.936;4.788;2024-01-07T08:14:38;102288.50;;;0.19;100.00
47220;BME280;32961;51.936;4.788;2024-01-07T08:17:07;102292.16;;;0.14;100.00
47220;BME280;32961;51.936;4.788;2024-01-07T08:19:36;102294.19;;;0.05;100.00
47220;BME280;32961;51.936;4.788;2024-01-07T08:22:04;102295.16;;;0.02;100.00
47220;BME280;32961;51.936;4.788;2024-01-07T08:24:32;102297.78;;;0.04;100.00
47220;BME280;32961;51.936;4.788;2024-01-07T08:27:00;102292.59;;;-0.03;100.00
47220;BME280;32961;51.936;4.788;2024-01-07T08:29:30;102305.16;;;-0.05;100.00
47220;BME280;32961;51.936;4.788;2024-01-07T08:31:58;102309.59;;;-0.05;100.00
47220;BME280;32961;51.936;4.788;2024-01-07T08:34:26;102312.19;;;-0.02;100.00
47220;BME280;32961;51.936;4.788;2024-01-07T08:36:54;102316.59;;;0.01;100.00
47220;BME280;32961;51.936;4.788;2024-01-07T08:39:22;102320.00;;;0.06;99.69
47220;BME280;32961;51.936;4.788;2024-01-07T08:41:52;102313.75;;;0.07;100.00
47220;BME280;32961;51.936;4.788;2024-01-07T08:44:20;102329.94;;;0.01;100.00
47220;BME280;32961;51.936;4.788;2024-01-07T08:46:50;102327.22;;;0.02;100.00
47220;BME280;32961;51.936;4.788;2024-01-07T08:49:17;102329.22;;;-0.06;100.00
47220;BME280;32961;51.936;4.788;2024-01-07T08:51:46;102332.63;;;0.01;99.86
47220;BME280;32961;51.936;4.788;2024-01-07T08:54:14;102335.19;;;0.05;99.75
47220;BME280;32961;51.936;4.788;2024-01-07T08:56:41;102340.53;;;0.05;99.84
47220;BME280;32961;51.936;4.788;2024-01-07T08:59:10;102343.19;;;0.05;100.00
47220;BME280;32961;51.936;4.788;2024-01-07T09:01:38;102347.53;;;0.09;100.00
47220;BME280;32961;51.936;4.788;2024-01-07T09:04:07;102352.13;;;0.04;100.00
47220;BME280;32961;51.936;4.788;2024-01-07T09:06:35;102354.81;;;0.04;100.00
47220;BME280;32961;51.936;4.788;2024-01-07T09:09:03;102361.00;;;0.06;100.00
47220;BME280;32961;51.936;4.788;2024-01-07T09:11:32;102355.66;;;0.06;99.49
47220;BME280;32961;51.936;4.788;2024-01-07T09:14:00;102377.03;;;0.06;100.00
47220;BME280;32961;51.936;4.788;2024-01-07T09:16:28;102376.94;;;0.09;99.21
47220;BME280;32961;51.936;4.788;2024-01-07T09:18:56;102378.59;;;0.15;98.90
47220;BME280;32961;51.936;4.788;2024-01-07T09:21:25;102376.66;;;0.20;99.14
47220;BME280;32961;51.936;4.788;2024-01-07T09:23:53;102381.06;;;0.23;97.76
47220;BME280;32961;51.936;4.788;2024-01-07T09:26:21;102390.78;;;0.25;97.25
47220;BME280;32961;51.936;4.788;2024-01-07T09:28:49;102387.53;;;0.14;97.01
47220;BME280;32961;51.936;4.788;2024-01-07T09:31:18;102392.44;;;-0.05;96.88
47220;BME280;32961;51.936;4.788;2024-01-07T09:33:46;102390.06;;;-0.18;96.43
47220;BME280;32961;51.936;4.788;2024-01-07T09:36:14;102394.34;;;-0.10;97.42
47220;BME280;32961;51.936;4.788;2024-01-07T09:38:56;102404.84;;;-0.03;96.97
47220;BME280;32961;51.936;4.788;2024-01-07T09:41:27;102407.59;;;-0.06;95.82
47220;BME280;32961;51.936;4.788;2024-01-07T09:43:55;102405.13;;;-0.15;95.56
47220;BME280;32961;51.936;4.788;2024-01-07T09:46:24;102408.66;;;-0.13;95.91
47220;BME280;32961;51.936;4.788;2024-01-07T09:48:52;102411.00;;;0.01;96.63
47220;BME280;32961;51.936;4.788;2024-01-07T09:51:22;102418.09;;;0.02;95.73
47220;BME280;32961;51.936;4.788;2024-01-07T09:53:56;102425.16;;;0.06;94.49
47220;BME280;32961;51.936;4.788;2024-01-07T09:56:34;102422.47;;;0.06;94.48
47220;BME280;32961;51.936;4.788;2024-01-07T09:59:03;102429.84;;;-0.04;93.80
47220;BME280;32961;51.936;4.788;2024-01-07T10:01:31;102436.16;;;-0.08;93.05
47220;BME280;32961;51.936;4.788;2024-01-07T10:04:00;102436.09;;;-0.06;93.17
47220;BME280;32961;51.936;4.788;2024-01-07T10:06:28;102434.22;;;-0.03;92.98
47220;BME280;32961;51.936;4.788;2024-01-07T10:08:56;102443.16;;;-0.02;92.94
47220;BME280;32961;51.936;4.788;2024-01-07T10:11:25;102441.44;;;-0.06;92.42
47220;BME280;32961;51.936;4.788;2024-01-07T10:13:54;102447.03;;;-0.15;92.04
47220;BME280;32961;51.936;4.788;2024-01-07T10:16:22;102447.97;;;-0.18;91.48
47220;BME280;32961;51.936;4.788;2024-01-07T10:18:49;102446.88;;;-0.09;92.31
47220;BME280;32961;51.936;4.788;2024-01-07T10:21:18;102453.94;;;-0.07;91.80
47220;BME280;32961;51.936;4.788;2024-01-07T10:23:46;102459.91;;;0.05;91.87
47220;BME280;32961;51.936;4.788;2024-01-07T10:26:14;102452.84;;;0.02;92.07
47220;BME280;32961;51.936;4.788;2024-01-07T10:28:54;102459.91;;;0.05;92.41
47220;BME280;32961;51.936;4.788;2024-01-07T10:31:23;102468.00;;;0.02;92.22
47220;BME280;32961;51.936;4.788;2024-01-07T10:33:52;102468.88;;;0.02;92.58
47220;BME280;32961;51.936;4.788;2024-01-07T10:36:20;102464.28;;;0.07;92.78
47220;BME280;32961;51.936;4.788;2024-01-07T10:38:48;102455.50;;;0.02;93.43
47220;BME280;32961;51.936;4.788;2024-01-07T10:41:18;102470.94;;;-0.09;94.31
47220;BME280;32961;51.936;4.788;2024-01-07T10:43:47;102460.81;;;0.05;93.79
47220;BME280;32961;51.936;4.788;2024-01-07T10:46:16;102463.81;;;-0.10;92.54
47220;BME280;32961;51.936;4.788;2024-01-07T10:48:51;102474.41;;;-0.06;93.61
47220;BME280;32961;51.936;4.788;2024-01-07T10:51:21;102468.91;;;0.01;92.83
47220;BME280;32961;51.936;4.788;2024-01-07T10:53:51;102475.19;;;-0.01;93.47
47220;BME280;32961;51.936;4.788;2024-01-07T10:56:22;102471.34;;;0.10;92.46
47220;BME280;32961;51.936;4.788;2024-01-07T10:58:51;102468.56;;;0.16;92.54
47220;BME280;32961;51.936;4.788;2024-01-07T11:01:21;102472.91;;;0.20;92.63
47220;BME280;32961;51.936;4.788;2024-01-07T11:03:56;102476.44;;;0.21;91.43
47220;BME280;32961;51.936;4.788;2024-01-07T11:06:31;102475.78;;;0.11;90.89
47220;BME280;32961;51.936;4.788;2024-01-07T11:09:05;102476.53;;;0.18;90.76
47220;BME280;32961;51.936;4.788;2024-01-07T11:11:36;102483.56;;;0.22;91.43
47220;BME280;32961;51.936;4.788;2024-01-07T11:14:34;102489.19;;;0.09;89.02
47220;BME280;32961;51.936;4.788;2024-01-07T11:17:04;102479.72;;;-0.04;89.30
47220;BME280;32961;51.936;4.788;2024-01-07T11:19:32;102479.66;;;-0.01;89.08
47220;BME280;32961;51.936;4.788;2024-01-07T11:22:23;102475.38;;;-0.08;89.07
47220;BME280;32961;51.936;4.788;2024-01-07T11:24:52;102471.50;;;0.04;88.99
47220;BME280;32961;51.936;4.788;2024-01-07T11:27:21;102475.97;;;0.03;88.31
47220;BME280;32961;51.936;4.788;2024-01-07T11:29:55;102478.50;;;0.09;87.54
47220;BME280;32961;51.936;4.788;2024-01-07T11:32:29;102476.84;;;0.05;87.22
47220;BME280;32961;51.936;4.788;2024-01-07T11:34:57;102474.25;;;0.01;87.36
47220;BME280;32961;51.936;4.788;2024-01-07T11:37:26;102475.19;;;-0.01;87.22
47220;BME280;32961;51.936;4.788;2024-01-07T11:39:55;102478.66;;;0.03;87.92
47220;BME280;32961;51.936;4.788;2024-01-07T11:42:24;102482.25;;;0.02;88.24
47220;BME280;32961;51.936;4.788;2024-01-07T11:44:53;102473.47;;;-0.03;86.75
47220;BME280;32961;51.936;4.788;2024-01-07T11:47:22;102470.78;;;-0.03;86.64
47220;BME280;32961;51.936;4.788;2024-01-07T11:49:52;102477.94;;;-0.05;85.63
47220;BME280;32961;51.936;4.788;2024-01-07T11:52:20;102474.47;;;-0.09;85.72
47220;BME280;32961;51.936;4.788;2024-01-07T11:54:48;102477.19;;;-0.10;85.52
47220;BME280;32961;51.936;4.788;2024-01-07T11:57:17;102487.72;;;-0.04;85.94
47220;BME280;32961;51.936;4.788;2024-01-07T11:59:45;102500.09;;;0.02;84.72
47220;BME280;32961;51.936;4.788;2024-01-07T12:02:14;102492.22;;;-0.05;84.05
47220;BME280;32961;51.936;4.788;2024-01-07T12:04:43;102486.81;;;-0.03;83.39
47220;BME280;32961;51.936;4.788;2024-01-07T12:07:13;102496.50;;;0.01;84.05
47220;BME280;32961;51.936;4.788;2024-01-07T12:09:41;102492.94;;;0.02;84.25
47220;BME280;32961;51.936;4.788;2024-01-07T12:12:09;102490.31;;;0.01;84.68
47220;BME280;32961;51.936;4.788;2024-01-07T12:14:37;102498.88;;;0.15;84.54
47220;BME280;32961;51.936;4.788;2024-01-07T12:17:05;102496.22;;;0.13;83.16
47220;BME280;32961;51.936;4.788;2024-01-07T12:19:35;102499.78;;;0.14;83.55
47220;BME280;32961;51.936;4.788;2024-01-07T12:22:04;102504.75;;;0.31;83.06
47220;BME280;32961;51.936;4.788;2024-01-07T12:24:34;102502.16;;;0.26;84.06
47220;BME280;32961;51.936;4.788;2024-01-07T12:27:06;102497.63;;;0.30;82.62
47220;BME280;32961;51.936;4.788;2024-01-07T12:29:34;102512.88;;;0.26;80.92
47220;BME280;32961;51.936;4.788;2024-01-07T12:32:02;102512.81;;;0.28;81.18
47220;BME280;32961;51.936;4.788;2024-01-07T12:34:30;102506.72;;;0.23;80.16
47220;BME280;32961;51.936;4.788;2024-01-07T12:36:59;102506.50;;;0.30;80.96
47220;BME280;32961;51.936;4.788;2024-01-07T12:39:29;102510.25;;;0.25;80.74
47220;BME280;32961;51.936;4.788;2024-01-07T12:41:58;102518.13;;;0.29;81.14
47220;BME280;32961;51.936;4.788;2024-01-07T12:44:27;102505.72;;;0.27;80.82
47220;BME280;32961;51.936;4.788;2024-01-07T12:46:55;102511.91;;;0.29;80.43
47220;BME280;32961;51.936;4.788;2024-01-07T12:49:23;102512.91;;;0.25;78.44
47220;BME280;32961;51.936;4.788;2024-01-07T12:51:51;102517.25;;;0.29;78.68
47220;BME280;32961;51.936;4.788;2024-01-07T12:54:19;102521.59;;;0.35;79.28
47220;BME280;32961;51.936;4.788;2024-01-07T12:56:48;102518.13;;;0.29;78.55
47220;BME280;32961;51.936;4.788;2024-01-07T12:59:17;102521.94;;;0.19;77.33
47220;BME280;32961;51.936;4.788;2024-01-07T13:01:45;102520.13;;;0.21;77.73